sensor_id;sensor_type;location;lat;lon;timestamp;P1;durP1;ratioP1;P2;durP2;ratioP2
1412;SDS011;701;52.526;13.408;2023-08-31T00:02:14;6.07;;;2.93;;
1412;SDS011;701;52.526;13.408;2023-08-31T00:04:39;6.20;;;2.83;;
1412;SDS011;701;52.526;13.408;2023-08-31T00:07:05;5.40;;;2.60;;
1412;SDS011;701;52.526;13.408;2023-08-31T00:09:32;6.80;;;2.75;;
1412;SDS011;701;52.526;13.408;2023-08-31T00:11:58;5.67;;;2.70;;
1412;SDS011;701;52.526;13.408;2023-08-31T00:14:27;7.23;;;2.80;;
1412;SDS011;701;52.526;13.408;2023-08-31T00:16:53;5.68;;;2.90;;
1412;SDS011;701;52.526;13.408;2023-08-31T00:19:19;5.13;;;2.60;;
1412;SDS011;701;52.526;13.408;2023-08-31T00:21:45;6.80;;;2.90;;
1412;SDS011;701;52.526;13.408;2023-08-31T00:24:10;6.13;;;2.65;;
1412;SDS011;701;52.526;13.408;2023-08-31T00:26:37;7.20;;;2.55;;
1412;SDS011;701;52.526;13.408;2023-08-31T00:29:10;5.50;;;2.50;;
1412;SDS011;701;52.526;13.408;2023-08-31T00:31:37;5.82;;;2.40;;
1412;SDS011;701;52.526;13.408;2023-08-31T00:34:04;6.47;;;2.58;;
1412;SDS011;701;52.526;13.408;2023-08-31T00:36:31;6.57;;;2.78;;
1412;SDS011;701;52.526;13.408;2023-08-31T00:39:02;7.38;;;2.53;;
1412;SDS011;701;52.526;13.408;2023-08-31T00:41:31;6.83;;;2.73;;
1412;SDS011;701;52.526;13.408;2023-08-31T00:43:57;5.32;;;2.60;;
1412;SDS011;701;52.526;13.408;2023-08-31T00:46:24;5.10;;;2.50;;
1412;SDS011;701;52.526;13.408;2023-08-31T00:48:53;5.63;;;2.42;;
1412;SDS011;701;52.526;13.408;2023-08-31T00:51:20;5.15;;;2.30;;
1412;SDS011;701;52.526;13.408;2023-08-31T00:53:46;5.53;;;2.20;;
1412;SDS011;701;52.526;13.408;2023-08-31T00:56:13;5.40;;;2.40;;
1412;SDS011;701;52.526;13.408;2023-08-31T00:58:39;4.95;;;2.45;;
1412;SDS011;701;52.526;13.408;2023-08-31T01:03:38;6.33;;;2.50;;
1412;SDS011;701;52.526;13.408;2023-08-31T01:12:24;5.18;;;2.50;;
1412;SDS011;701;52.526;13.408;2023-08-31T01:15:02;5.85;;;2.45;;
1412;SDS011;701;52.526;13.408;2023-08-31T01:17:30;5.73;;;2.40;;
1412;SDS011;701;52.526;13.408;2023-08-31T01:19:58;5.88;;;2.80;;
1412;SDS011;701;52.526;13.408;2023-08-31T01:22:47;5.30;;;2.75;;
1412;SDS011;701;52.526;13.408;2023-08-31T01:25:25;6.20;;;2.90;;
1412;SDS011;701;52.526;13.408;2023-08-31T01:27:52;5.60;;;3.00;;
1412;SDS011;701;52.526;13.408;2023-08-31T01:30:18;8.60;;;3.00;;
1412;SDS011;701;52.526;13.408;2023-08-31T01:32:44;6.28;;;3.00;;
1412;SDS011;701;52.526;13.408;2023-08-31T01:35:10;6.00;;;2.90;;
1412;SDS011;701;52.526;13.408;2023-08-31T01:37:39;6.50;;;2.65;;
1412;SDS011;701;52.526;13.408;2023-08-31T01:43:07;5.80;;;2.47;;
1412;SDS011;701;52.526;13.408;2023-08-31T01:45:35;6.15;;;2.65;;
1412;SDS011;701;52.526;13.408;2023-08-31T01:48:03;6.97;;;2.40;;
1412;SDS011;701;52.526;13.408;2023-08-31T01:50:29;5.25;;;2.20;;
1412;SDS011;701;52.526;13.408;2023-08-31T01:52:55;6.60;;;2.43;;
1412;SDS011;701;52.526;13.408;2023-08-31T01:55:21;4.70;;;2.10;;
1412;SDS011;701;52.526;13.408;2023-08-31T01:57:47;6.67;;;2.23;;
1412;SDS011;701;52.526;13.408;2023-08-31T02:00:20;6.20;;;2.25;;
1412;SDS011;701;52.526;13.408;2023-08-31T02:02:46;5.30;;;2.40;;
1412;SDS011;701;52.526;13.408;2023-08-31T02:05:12;6.65;;;2.17;;
1412;SDS011;701;52.526;13.408;2023-08-31T02:07:38;4.83;;;1.80;;
1412;SDS011;701;52.526;13.408;2023-08-31T02:10:05;6.20;;;2.03;;
1412;SDS011;701;52.526;13.408;2023-08-31T02:12:32;5.43;;;2.28;;
1412;SDS011;701;52.526;13.408;2023-08-31T02:14:58;5.05;;;1.98;;
1412;SDS011;701;52.526;13.408;2023-08-31T02:17:24;5.03;;;2.10;;
1412;SDS011;701;52.526;13.408;2023-08-31T02:19:50;4.47;;;1.70;;
1412;SDS011;701;52.526;13.408;2023-08-31T02:22:16;5.70;;;1.90;;
1412;SDS011;701;52.526;13.408;2023-08-31T02:24:42;4.45;;;1.60;;
1412;SDS011;701;52.526;13.408;2023-08-31T02:27:08;4.40;;;1.47;;
1412;SDS011;701;52.526;13.408;2023-08-31T02:29:34;4.25;;;1.55;;
1412;SDS011;701;52.526;13.408;2023-08-31T02:32:00;4.33;;;1.40;;
1412;SDS011;701;52.526;13.408;2023-08-31T02:34:29;4.60;;;1.70;;
1412;SDS011;701;52.526;13.408;2023-08-31T02:36:54;6.35;;;1.67;;
1412;SDS011;701;52.526;13.408;2023-08-31T02:39:20;6.37;;;1.57;;
1412;SDS011;701;52.526;13.408;2023-08-31T02:41:46;4.80;;;1.52;;
1412;SDS011;701;52.526;13.408;2023-08-31T02:44:12;5.83;;;1.73;;
1412;SDS011;701;52.526;13.408;2023-08-31T02:46:37;4.82;;;1.80;;
1412;SDS011;701;52.526;13.408;2023-08-31T02:49:04;4.95;;;1.60;;
1412;SDS011;701;52.526;13.408;2023-08-31T02:51:30;5.30;;;1.60;;
1412;SDS011;701;52.526;13.408;2023-08-31T02:53:56;4.60;;;1.80;;
1412;SDS011;701;52.526;13.408;2023-08-31T02:56:21;4.85;;;1.90;;
1412;SDS011;701;52.526;13.408;2023-08-31T02:58:47;7.55;;;1.63;;
1412;SDS011;701;52.526;13.408;2023-08-31T03:01:13;5.00;;;1.90;;
1412;SDS011;701;52.526;13.408;2023-08-31T03:03:43;5.25;;;2.08;;
1412;SDS011;701;52.526;13.408;2023-08-31T03:06:11;4.70;;;1.80;;
1412;SDS011;701;52.526;13.408;2023-08-31T03:08:37;4.40;;;1.70;;
1412;SDS011;701;52.526;13.408;2023-08-31T03:11:04;5.00;;;1.80;;
1412;SDS011;701;52.526;13.408;2023-08-31T03:13:30;5.22;;;1.85;;
1412;SDS011;701;52.526;13.408;2023-08-31T03:15:57;4.78;;;1.88;;
1412;SDS011;701;52.526;13.408;2023-08-31T03:18:24;4.80;;;1.67;;
1412;SDS011;701;52.526;13.408;2023-08-31T03:20:50;4.18;;;1.42;;
1412;SDS011;701;52.526;13.408;2023-08-31T03:23:16;4.50;;;1.55;;
1412;SDS011;701;52.526;13.408;2023-08-31T03:25:42;4.75;;;1.92;;
1412;SDS011;701;52.526;13.408;2023-08-31T03:28:08;4.57;;;1.70;;
1412;SDS011;701;52.526;13.408;2023-08-31T03:30:35;4.88;;;2.00;;
1412;SDS011;701;52.526;13.408;2023-08-31T03:33:01;5.10;;;1.80;;
1412;SDS011;701;52.526;13.408;2023-08-31T03:35:27;5.80;;;1.90;;
1412;SDS011;701;52.526;13.408;2023-08-31T03:37:55;4.87;;;1.97;;
1412;SDS011;701;52.526;13.408;2023-08-31T03:40:21;4.25;;;1.60;;
1412;SDS011;701;52.526;13.408;2023-08-31T03:42:50;4.75;;;1.60;;
1412;SDS011;701;52.526;13.408;2023-08-31T03:45:17;7.05;;;1.90;;
1412;SDS011;701;52.526;13.408;2023-08-31T03:47:43;4.43;;;1.58;;
1412;SDS011;701;52.526;13.408;2023-08-31T03:50:09;5.00;;;1.83;;
1412;SDS011;701;52.526;13.408;2023-08-31T03:52:35;4.60;;;1.90;;
1412;SDS011;701;52.526;13.408;2023-08-31T03:55:01;4.32;;;1.63;;
1412;SDS011;701;52.526;13.408;2023-08-31T03:57:27;5.93;;;1.83;;
1412;SDS011;701;52.526;13.408;2023-08-31T03:59:58;5.90;;;2.42;;
1412;SDS011;701;52.526;13.408;2023-08-31T04:02:24;5.07;;;2.10;;
1412;SDS011;701;52.526;13.408;2023-08-31T04:04:50;6.43;;;2.53;;
1412;SDS011;701;52.526;13.408;2023-08-31T04:07:15;7.13;;;2.27;;
1412;SDS011;701;52.526;13.408;2023-08-31T04:09:41;8.00;;;2.40;;
1412;SDS011;701;52.526;13.408;2023-08-31T04:12:07;8.03;;;2.70;;
1412;SDS011;701;52.526;13.408;2023-08-31T04:14:33;7.65;;;2.92;;
1412;SDS011;701;52.526;13.408;2023-08-31T04:16:58;6.47;;;2.83;;
1412;SDS011;701;52.526;13.408;2023-08-31T04:19:24;6.38;;;2.70;;
1412;SDS011;701;52.526;13.408;2023-08-31T04:21:50;7.40;;;3.05;;
1412;SDS011;701;52.526;13.408;2023-08-31T04:24:16;6.77;;;2.87;;
1412;SDS011;701;52.526;13.408;2023-08-31T04:26:42;6.60;;;3.17;;
1412;SDS011;701;52.526;13.408;2023-08-31T04:29:10;6.38;;;2.90;;
1412;SDS011;701;52.526;13.408;2023-08-31T04:31:35;8.47;;;3.23;;
1412;SDS011;701;52.526;13.408;2023-08-31T04:34:03;7.22;;;3.08;;
1412;SDS011;701;52.526;13.408;2023-08-31T04:36:29;7.72;;;3.30;;
1412;SDS011;701;52.526;13.408;2023-08-31T04:38:55;6.93;;;3.27;;
1412;SDS011;701;52.526;13.408;2023-08-31T04:41:21;8.13;;;3.47;;
1412;SDS011;701;52.526;13.408;2023-08-31T04:43:46;6.97;;;3.40;;
1412;SDS011;701;52.526;13.408;2023-08-31T04:46:15;9.00;;;3.70;;
1412;SDS011;701;52.526;13.408;2023-08-31T04:48:41;9.75;;;4.13;;
1412;SDS011;701;52.526;13.408;2023-08-31T04:51:09;7.83;;;3.30;;
1412;SDS011;701;52.526;13.408;2023-08-31T04:53:51;7.53;;;3.67;;
1412;SDS011;701;52.526;13.408;2023-08-31T04:56:17;10.05;;;3.42;;
1412;SDS011;701;52.526;13.408;2023-08-31T04:58:43;8.60;;;3.60;;
1412;SDS011;701;52.526;13.408;2023-08-31T05:01:08;7.65;;;3.90;;
1412;SDS011;701;52.526;13.408;2023-08-31T05:03:34;9.27;;;3.83;;
1412;SDS011;701;52.526;13.408;2023-08-31T05:06:00;9.88;;;3.80;;
1412;SDS011;701;52.526;13.408;2023-08-31T05:08:28;8.07;;;3.58;;
1412;SDS011;701;52.526;13.408;2023-08-31T05:10:54;8.03;;;3.80;;
1412;SDS011;701;52.526;13.408;2023-08-31T05:13:20;8.68;;;4.00;;
1412;SDS011;701;52.526;13.408;2023-08-31T05:15:46;8.87;;;4.17;;
1412;SDS011;701;52.526;13.408;2023-08-31T05:18:11;8.35;;;4.35;;
1412;SDS011;701;52.526;13.408;2023-08-31T05:20:37;7.40;;;3.93;;
1412;SDS011;701;52.526;13.408;2023-08-31T05:23:03;8.02;;;3.80;;
1412;SDS011;701;52.526;13.408;2023-08-31T05:25:29;8.10;;;4.05;;
1412;SDS011;701;52.526;13.408;2023-08-31T05:27:55;8.37;;;4.00;;
1412;SDS011;701;52.526;13.408;2023-08-31T05:30:20;11.68;;;3.97;;
1412;SDS011;701;52.526;13.408;2023-08-31T05:32:49;8.43;;;3.60;;
1412;SDS011;701;52.526;13.408;2023-08-31T05:35:15;8.00;;;4.00;;
1412;SDS011;701;52.526;13.408;2023-08-31T05:37:41;12.85;;;4.38;;
1412;SDS011;701;52.526;13.408;2023-08-31T05:40:07;9.77;;;3.83;;
1412;SDS011;701;52.526;13.408;2023-08-31T05:42:35;7.70;;;4.03;;
1412;SDS011;701;52.526;13.408;2023-08-31T05:45:01;10.38;;;3.95;;
1412;SDS011;701;52.526;13.408;2023-08-31T05:47:27;8.15;;;3.63;;
1412;SDS011;701;52.526;13.408;2023-08-31T05:49:53;9.47;;;4.33;;
1412;SDS011;701;52.526;13.408;2023-08-31T05:52:19;8.20;;;4.30;;
1412;SDS011;701;52.526;13.408;2023-08-31T05:54:44;9.20;;;4.60;;
1412;SDS011;701;52.526;13.408;2023-08-31T05:57:10;11.65;;;4.45;;
1412;SDS011;701;52.526;13.408;2023-08-31T05:59:36;8.40;;;4.73;;
1412;SDS011;701;52.526;13.408;2023-08-31T06:02:02;8.63;;;4.22;;
1412;SDS011;701;52.526;13.408;2023-08-31T06:04:32;8.30;;;4.35;;
1412;SDS011;701;52.526;13.408;2023-08-31T06:06:59;8.73;;;4.17;;
1412;SDS011;701;52.526;13.408;2023-08-31T06:09:25;9.90;;;4.07;;
1412;SDS011;701;52.526;13.408;2023-08-31T06:11:51;10.80;;;3.93;;
1412;SDS011;701;52.526;13.408;2023-08-31T06:14:16;8.43;;;4.10;;
1412;SDS011;701;52.526;13.408;2023-08-31T06:16:42;7.77;;;4.20;;
1412;SDS011;701;52.526;13.408;2023-08-31T06:19:08;9.23;;;4.20;;
1412;SDS011;701;52.526;13.408;2023-08-31T06:21:34;8.73;;;4.28;;
1412;SDS011;701;52.526;13.408;2023-08-31T06:24:00;7.90;;;3.63;;
1412;SDS011;701;52.526;13.408;2023-08-31T06:26:26;10.77;;;3.83;;
1412;SDS011;701;52.526;13.408;2023-08-31T06:28:52;8.82;;;4.18;;
1412;SDS011;701;52.526;13.408;2023-08-31T06:31:17;8.30;;;4.20;;
1412;SDS011;701;52.526;13.408;2023-08-31T06:33:44;8.45;;;4.10;;
1412;SDS011;701;52.526;13.408;2023-08-31T06:36:10;10.00;;;4.43;;
1412;SDS011;701;52.526;13.408;2023-08-31T06:38:35;11.38;;;4.60;;
1412;SDS011;701;52.526;13.408;2023-08-31T06:41:02;9.40;;;4.68;;
1412;SDS011;701;52.526;13.408;2023-08-31T06:43:27;8.77;;;4.80;;
1412;SDS011;701;52.526;13.408;2023-08-31T06:45:53;8.57;;;4.40;;
1412;SDS011;701;52.526;13.408;2023-08-31T06:48:19;9.10;;;4.60;;
1412;SDS011;701;52.526;13.408;2023-08-31T06:50:45;10.07;;;3.93;;
1412;SDS011;701;52.526;13.408;2023-08-31T06:53:12;9.15;;;4.28;;
1412;SDS011;701;52.526;13.408;2023-08-31T06:55:38;8.00;;;3.83;;
1412;SDS011;701;52.526;13.408;2023-08-31T06:58:04;9.93;;;3.90;;
1412;SDS011;701;52.526;13.408;2023-08-31T07:00:30;11.00;;;5.28;;
1412;SDS011;701;52.526;13.408;2023-08-31T07:02:57;10.68;;;4.20;;
1412;SDS011;701;52.526;13.408;2023-08-31T07:05:24;9.23;;;3.77;;
1412;SDS011;701;52.526;13.408;2023-08-31T07:07:53;9.32;;;3.70;;
1412;SDS011;701;52.526;13.408;2023-08-31T07:10:19;7.68;;;3.83;;
1412;SDS011;701;52.526;13.408;2023-08-31T07:12:46;8.88;;;3.53;;
1412;SDS011;701;52.526;13.408;2023-08-31T07:15:12;6.50;;;3.40;;
1412;SDS011;701;52.526;13.408;2023-08-31T07:17:37;9.88;;;3.13;;
1412;SDS011;701;52.526;13.408;2023-08-31T07:20:03;9.10;;;4.13;;
1412;SDS011;701;52.526;13.408;2023-08-31T07:22:33;7.30;;;3.27;;
1412;SDS011;701;52.526;13.408;2023-08-31T07:24:59;8.02;;;3.85;;
1412;SDS011;701;52.526;13.408;2023-08-31T07:27:25;10.25;;;3.50;;
1412;SDS011;701;52.526;13.408;2023-08-31T07:29:53;13.80;;;3.80;;
1412;SDS011;701;52.526;13.408;2023-08-31T07:32:19;10.90;;;3.38;;
1412;SDS011;701;52.526;13.408;2023-08-31T07:34:45;7.60;;;3.10;;
1412;SDS011;701;52.526;13.408;2023-08-31T07:37:11;6.75;;;3.10;;
1412;SDS011;701;52.526;13.408;2023-08-31T07:39:37;12.77;;;3.28;;
1412;SDS011;701;52.526;13.408;2023-08-31T07:42:02;7.43;;;2.87;;
1412;SDS011;701;52.526;13.408;2023-08-31T07:44:30;7.13;;;3.15;;
1412;SDS011;701;52.526;13.408;2023-08-31T07:46:56;10.00;;;4.38;;
1412;SDS011;701;52.526;13.408;2023-08-31T07:49:22;6.53;;;2.70;;
1412;SDS011;701;52.526;13.408;2023-08-31T07:51:48;8.57;;;2.80;;
1412;SDS011;701;52.526;13.408;2023-08-31T07:54:22;9.95;;;2.95;;
1412;SDS011;701;52.526;13.408;2023-08-31T07:56:48;6.40;;;2.70;;
1412;SDS011;701;52.526;13.408;2023-08-31T07:59:17;9.50;;;3.15;;
1412;SDS011;701;52.526;13.408;2023-08-31T08:01:43;6.15;;;2.70;;
1412;SDS011;701;52.526;13.408;2023-08-31T08:04:12;9.40;;;3.58;;
1412;SDS011;701;52.526;13.408;2023-08-31T08:06:38;8.80;;;3.08;;
1412;SDS011;701;52.526;13.408;2023-08-31T08:09:04;7.90;;;2.77;;
1412;SDS011;701;52.526;13.408;2023-08-31T08:11:30;7.35;;;2.88;;
1412;SDS011;701;52.526;13.408;2023-08-31T08:13:56;8.77;;;3.60;;
1412;SDS011;701;52.526;13.408;2023-08-31T08:16:22;6.80;;;2.35;;
1412;SDS011;701;52.526;13.408;2023-08-31T08:18:47;6.72;;;2.50;;
1412;SDS011;701;52.526;13.408;2023-08-31T08:21:14;7.32;;;2.22;;
1412;SDS011;701;52.526;13.408;2023-08-31T08:23:40;6.40;;;2.33;;
1412;SDS011;701;52.526;13.408;2023-08-31T08:26:06;5.32;;;1.77;;
1412;SDS011;701;52.526;13.408;2023-08-31T08:28:31;6.87;;;2.07;;
1412;SDS011;701;52.526;13.408;2023-08-31T08:31:00;5.45;;;1.83;;
1412;SDS011;701;52.526;13.408;2023-08-31T08:33:28;6.47;;;1.95;;
1412;SDS011;701;52.526;13.408;2023-08-31T08:35:58;5.83;;;1.70;;
1412;SDS011;701;52.526;13.408;2023-08-31T08:38:25;5.28;;;1.58;;
1412;SDS011;701;52.526;13.408;2023-08-31T08:40:50;6.18;;;1.88;;
1412;SDS011;701;52.526;13.408;2023-08-31T08:43:17;6.43;;;1.90;;
1412;SDS011;701;52.526;13.408;2023-08-31T08:45:55;6.80;;;1.63;;
1412;SDS011;701;52.526;13.408;2023-08-31T08:48:30;6.03;;;2.40;;
1412;SDS011;701;52.526;13.408;2023-08-31T08:50:58;9.27;;;3.50;;
1412;SDS011;701;52.526;13.408;2023-08-31T08:53:25;6.03;;;1.60;;
1412;SDS011;701;52.526;13.408;2023-08-31T08:55:51;7.10;;;1.70;;
1412;SDS011;701;52.526;13.408;2023-08-31T08:58:17;5.73;;;1.50;;
1412;SDS011;701;52.526;13.408;2023-08-31T09:00:42;6.45;;;1.90;;
1412;SDS011;701;52.526;13.408;2023-08-31T09:03:08;6.83;;;1.70;;
1412;SDS011;701;52.526;13.408;2023-08-31T09:05:34;5.28;;;1.63;;
1412;SDS011;701;52.526;13.408;2023-08-31T09:08:06;10.63;;;1.80;;
1412;SDS011;701;52.526;13.408;2023-08-31T09:10:40;6.78;;;1.60;;
1412;SDS011;701;52.526;13.408;2023-08-31T09:13:12;6.72;;;1.50;;
1412;SDS011;701;52.526;13.408;2023-08-31T09:20:50;4.27;;;1.20;;
1412;SDS011;701;52.526;13.408;2023-08-31T09:23:16;5.50;;;1.30;;
1412;SDS011;701;52.526;13.408;2023-08-31T09:25:43;4.85;;;1.40;;
1412;SDS011;701;52.526;13.408;2023-08-31T09:28:18;4.88;;;1.45;;
1412;SDS011;701;52.526;13.408;2023-08-31T09:30:46;6.53;;;1.70;;
1412;SDS011;701;52.526;13.408;2023-08-31T09:33:14;8.23;;;1.63;;
1412;SDS011;701;52.526;13.408;2023-08-31T09:35:49;7.55;;;1.45;;
1412;SDS011;701;52.526;13.408;2023-08-31T09:38:16;5.05;;;1.33;;
1412;SDS011;701;52.526;13.408;2023-08-31T09:40:43;5.80;;;1.10;;
1412;SDS011;701;52.526;13.408;2023-08-31T09:43:08;4.90;;;1.27;;
1412;SDS011;701;52.526;13.408;2023-08-31T09:45:34;8.60;;;1.63;;
1412;SDS011;701;52.526;13.408;2023-08-31T09:48:02;4.38;;;1.20;;
1412;SDS011;701;52.526;13.408;2023-08-31T09:50:29;4.72;;;1.38;;
1412;SDS011;701;52.526;13.408;2023-08-31T09:52:57;4.47;;;1.58;;
1412;SDS011;701;52.526;13.408;2023-08-31T09:55:29;5.90;;;1.80;;
1412;SDS011;701;52.526;13.408;2023-08-31T09:57:57;5.38;;;1.40;;
1412;SDS011;701;52.526;13.408;2023-08-31T10:00:27;5.55;;;1.48;;
1412;SDS011;701;52.526;13.408;2023-08-31T10:03:00;6.07;;;1.20;;
1412;SDS011;701;52.526;13.408;2023-08-31T10:05:27;5.90;;;2.05;;
1412;SDS011;701;52.526;13.408;2023-08-31T10:07:53;6.13;;;1.40;;
1412;SDS011;701;52.526;13.408;2023-08-31T10:10:19;4.15;;;1.17;;
1412;SDS011;701;52.526;13.408;2023-08-31T10:12:49;5.53;;;1.50;;
1412;SDS011;701;52.526;13.408;2023-08-31T10:15:17;8.40;;;1.67;;
1412;SDS011;701;52.526;13.408;2023-08-31T10:17:44;7.20;;;1.40;;
1412;SDS011;701;52.526;13.408;2023-08-31T10:20:15;5.80;;;1.10;;
1412;SDS011;701;52.526;13.408;2023-08-31T10:22:42;4.40;;;1.23;;
1412;SDS011;701;52.526;13.408;2023-08-31T10:25:08;5.72;;;1.52;;
1412;SDS011;701;52.526;13.408;2023-08-31T10:27:38;4.57;;;1.65;;
1412;SDS011;701;52.526;13.408;2023-08-31T10:30:27;4.50;;;1.10;;
1412;SDS011;701;52.526;13.408;2023-08-31T10:35:48;5.00;;;1.33;;
1412;SDS011;701;52.526;13.408;2023-08-31T10:38:28;5.30;;;1.20;;
1412;SDS011;701;52.526;13.408;2023-08-31T10:46:27;3.75;;;1.10;;
1412;SDS011;701;52.526;13.408;2023-08-31T10:48:58;8.73;;;1.20;;
1412;SDS011;701;52.526;13.408;2023-08-31T10:51:32;4.55;;;1.25;;
1412;SDS011;701;52.526;13.408;2023-08-31T10:56:31;6.90;;;1.70;;
1412;SDS011;701;52.526;13.408;2023-08-31T10:58:58;6.85;;;1.50;;
1412;SDS011;701;52.526;13.408;2023-08-31T11:04:19;4.60;;;1.30;;
1412;SDS011;701;52.526;13.408;2023-08-31T11:09:44;4.47;;;1.30;;
1412;SDS011;701;52.526;13.408;2023-08-31T11:12:10;4.97;;;1.27;;
1412;SDS011;701;52.526;13.408;2023-08-31T11:14:37;5.63;;;1.23;;
1412;SDS011;701;52.526;13.408;2023-08-31T11:17:03;4.28;;;1.20;;
1412;SDS011;701;52.526;13.408;2023-08-31T11:19:30;9.27;;;1.60;;
1412;SDS011;701;52.526;13.408;2023-08-31T11:22:00;5.30;;;1.50;;
1412;SDS011;701;52.526;13.408;2023-08-31T11:24:28;5.80;;;1.30;;
1412;SDS011;701;52.526;13.408;2023-08-31T11:26:55;5.95;;;1.33;;
1412;SDS011;701;52.526;13.408;2023-08-31T11:29:23;4.82;;;1.83;;
1412;SDS011;701;52.526;13.408;2023-08-31T11:31:49;5.67;;;1.67;;
1412;SDS011;701;52.526;13.408;2023-08-31T11:34:16;7.40;;;1.88;;
1412;SDS011;701;52.526;13.408;2023-08-31T11:36:43;6.68;;;1.83;;
1412;SDS011;701;52.526;13.408;2023-08-31T11:39:11;5.47;;;1.90;;
1412;SDS011;701;52.526;13.408;2023-08-31T11:41:37;7.43;;;1.60;;
1412;SDS011;701;52.526;13.408;2023-08-31T11:44:09;6.80;;;1.60;;
1412;SDS011;701;52.526;13.408;2023-08-31T11:46:42;8.65;;;1.67;;
1412;SDS011;701;52.526;13.408;2023-08-31T11:49:09;5.43;;;1.50;;
1412;SDS011;701;52.526;13.408;2023-08-31T11:51:35;6.72;;;1.52;;
1412;SDS011;701;52.526;13.408;2023-08-31T11:54:04;5.00;;;1.50;;
1412;SDS011;701;52.526;13.408;2023-08-31T11:56:42;5.68;;;2.13;;
1412;SDS011;701;52.526;13.408;2023-08-31T11:59:11;6.22;;;2.08;;
1412;SDS011;701;52.526;13.408;2023-08-31T12:01:40;6.50;;;1.90;;
1412;SDS011;701;52.526;13.408;2023-08-31T12:04:11;8.18;;;1.83;;
1412;SDS011;701;52.526;13.408;2023-08-31T12:06:37;5.03;;;2.17;;
1412;SDS011;701;52.526;13.408;2023-08-31T12:09:05;6.78;;;1.70;;
1412;SDS011;701;52.526;13.408;2023-08-31T12:11:31;7.40;;;1.67;;
1412;SDS011;701;52.526;13.408;2023-08-31T12:14:01;5.53;;;1.63;;
1412;SDS011;701;52.526;13.408;2023-08-31T12:16:32;4.77;;;1.50;;
1412;SDS011;701;52.526;13.408;2023-08-31T12:19:01;6.72;;;1.92;;
1412;SDS011;701;52.526;13.408;2023-08-31T12:21:29;8.25;;;1.80;;
1412;SDS011;701;52.526;13.408;2023-08-31T12:23:58;5.22;;;1.70;;
1412;SDS011;701;52.526;13.408;2023-08-31T12:26:25;6.53;;;1.95;;
1412;SDS011;701;52.526;13.408;2023-08-31T12:28:51;8.53;;;2.17;;
1412;SDS011;701;52.526;13.408;2023-08-31T12:31:17;6.95;;;2.17;;
1412;SDS011;701;52.526;13.408;2023-08-31T12:33:43;5.10;;;1.80;;
1412;SDS011;701;52.526;13.408;2023-08-31T12:36:09;5.53;;;1.90;;
1412;SDS011;701;52.526;13.408;2023-08-31T12:38:34;7.47;;;2.17;;
1412;SDS011;701;52.526;13.408;2023-08-31T12:41:00;7.57;;;1.75;;
1412;SDS011;701;52.526;13.408;2023-08-31T12:43:27;5.30;;;1.90;;
1412;SDS011;701;52.526;13.408;2023-08-31T12:45:54;10.00;;;2.03;;
1412;SDS011;701;52.526;13.408;2023-08-31T12:48:21;7.85;;;2.42;;
1412;SDS011;701;52.526;13.408;2023-08-31T12:50:47;5.78;;;2.03;;
1412;SDS011;701;52.526;13.408;2023-08-31T12:53:16;6.00;;;1.73;;
1412;SDS011;701;52.526;13.408;2023-08-31T12:55:41;6.82;;;1.90;;
1412;SDS011;701;52.526;13.408;2023-08-31T12:58:07;6.78;;;1.98;;
1412;SDS011;701;52.526;13.408;2023-08-31T13:00:33;6.13;;;2.00;;
1412;SDS011;701;52.526;13.408;2023-08-31T13:02:59;7.72;;;3.30;;
1412;SDS011;701;52.526;13.408;2023-08-31T13:05:26;5.60;;;1.70;;
1412;SDS011;701;52.526;13.408;2023-08-31T13:07:54;6.35;;;1.52;;
1412;SDS011;701;52.526;13.408;2023-08-31T13:10:20;12.27;;;1.60;;
1412;SDS011;701;52.526;13.408;2023-08-31T13:12:46;4.50;;;1.80;;
1412;SDS011;701;52.526;13.408;2023-08-31T13:15:12;7.03;;;1.40;;
1412;SDS011;701;52.526;13.408;2023-08-31T13:17:38;4.13;;;1.40;;
1412;SDS011;701;52.526;13.408;2023-08-31T13:20:06;5.53;;;1.20;;
1412;SDS011;701;52.526;13.408;2023-08-31T13:22:33;6.38;;;1.60;;
1412;SDS011;701;52.526;13.408;2023-08-31T13:24:59;8.18;;;1.63;;
1412;SDS011;701;52.526;13.408;2023-08-31T13:27:25;4.25;;;1.38;;
1412;SDS011;701;52.526;13.408;2023-08-31T13:29:51;9.47;;;2.10;;
1412;SDS011;701;52.526;13.408;2023-08-31T13:32:17;4.53;;;1.42;;
1412;SDS011;701;52.526;13.408;2023-08-31T13:34:43;6.10;;;1.50;;
1412;SDS011;701;52.526;13.408;2023-08-31T13:37:09;4.57;;;1.20;;
1412;SDS011;701;52.526;13.408;2023-08-31T13:39:35;5.70;;;1.75;;
1412;SDS011;701;52.526;13.408;2023-08-31T13:42:02;6.07;;;1.50;;
1412;SDS011;701;52.526;13.408;2023-08-31T13:44:29;4.70;;;1.00;;
1412;SDS011;701;52.526;13.408;2023-08-31T13:46:56;4.30;;;1.23;;
1412;SDS011;701;52.526;13.408;2023-08-31T13:49:22;4.17;;;0.90;;
1412;SDS011;701;52.526;13.408;2023-08-31T13:51:47;4.43;;;1.58;;
1412;SDS011;701;52.526;13.408;2023-08-31T13:54:13;4.90;;;1.30;;
1412;SDS011;701;52.526;13.408;2023-08-31T13:56:39;5.50;;;1.58;;
1412;SDS011;701;52.526;13.408;2023-08-31T13:59:04;4.83;;;1.43;;
1412;SDS011;701;52.526;13.408;2023-08-31T14:01:30;5.83;;;1.53;;
1412;SDS011;701;52.526;13.408;2023-08-31T14:03:56;4.90;;;1.30;;
1412;SDS011;701;52.526;13.408;2023-08-31T14:06:22;6.33;;;1.70;;
1412;SDS011;701;52.526;13.408;2023-08-31T14:08:47;5.65;;;1.75;;
1412;SDS011;701;52.526;13.408;2023-08-31T14:11:13;3.77;;;1.03;;
1412;SDS011;701;52.526;13.408;2023-08-31T14:13:39;5.03;;;1.38;;
1412;SDS011;701;52.526;13.408;2023-08-31T14:16:07;5.47;;;1.20;;
1412;SDS011;701;52.526;13.408;2023-08-31T14:18:33;4.60;;;1.40;;
1412;SDS011;701;52.526;13.408;2023-08-31T14:21:00;4.25;;;1.13;;
1412;SDS011;701;52.526;13.408;2023-08-31T14:23:26;3.60;;;0.95;;
1412;SDS011;701;52.526;13.408;2023-08-31T14:25:52;7.40;;;1.20;;
1412;SDS011;701;52.526;13.408;2023-08-31T14:28:18;5.27;;;1.47;;
1412;SDS011;701;52.526;13.408;2023-08-31T14:30:43;4.28;;;0.93;;
1412;SDS011;701;52.526;13.408;2023-08-31T14:33:09;4.57;;;1.20;;
1412;SDS011;701;52.526;13.408;2023-08-31T14:35:38;3.88;;;1.00;;
1412;SDS011;701;52.526;13.408;2023-08-31T14:38:04;3.30;;;0.85;;
1412;SDS011;701;52.526;13.408;2023-08-31T14:40:30;4.38;;;1.00;;
1412;SDS011;701;52.526;13.408;2023-08-31T14:42:59;3.50;;;0.80;;
1412;SDS011;701;52.526;13.408;2023-08-31T14:45:25;6.40;;;0.80;;
1412;SDS011;701;52.526;13.408;2023-08-31T14:47:51;4.10;;;1.17;;
1412;SDS011;701;52.526;13.408;2023-08-31T14:50:17;6.13;;;1.63;;
1412;SDS011;701;52.526;13.408;2023-08-31T14:52:43;3.08;;;0.77;;
1412;SDS011;701;52.526;13.408;2023-08-31T14:55:08;4.93;;;1.00;;
1412;SDS011;701;52.526;13.408;2023-08-31T14:57:34;4.53;;;0.80;;
1412;SDS011;701;52.526;13.408;2023-08-31T15:00:00;4.10;;;1.20;;
1412;SDS011;701;52.526;13.408;2023-08-31T15:02:26;5.13;;;0.97;;
1412;SDS011;701;52.526;13.408;2023-08-31T15:04:52;3.40;;;0.90;;
1412;SDS011;701;52.526;13.408;2023-08-31T15:07:18;4.93;;;1.00;;
1412;SDS011;701;52.526;13.408;2023-08-31T15:09:44;4.47;;;0.90;;
1412;SDS011;701;52.526;13.408;2023-08-31T15:12:11;4.68;;;1.17;;
1412;SDS011;701;52.526;13.408;2023-08-31T15:14:37;3.53;;;0.90;;
1412;SDS011;701;52.526;13.408;2023-08-31T15:17:05;5.70;;;0.90;;
1412;SDS011;701;52.526;13.408;2023-08-31T15:19:31;4.07;;;1.15;;
1412;SDS011;701;52.526;13.408;2023-08-31T15:21:58;4.15;;;0.90;;
1412;SDS011;701;52.526;13.408;2023-08-31T15:24:24;3.63;;;0.90;;
1412;SDS011;701;52.526;13.408;2023-08-31T15:26:50;3.30;;;0.98;;
1412;SDS011;701;52.526;13.408;2023-08-31T15:29:16;3.45;;;0.95;;
1412;SDS011;701;52.526;13.408;2023-08-31T15:31:42;3.30;;;0.90;;
1412;SDS011;701;52.526;13.408;2023-08-31T15:34:10;3.60;;;1.00;;
1412;SDS011;701;52.526;13.408;2023-08-31T15:36:36;3.80;;;1.02;;
1412;SDS011;701;52.526;13.408;2023-08-31T15:39:02;5.60;;;1.10;;
1412;SDS011;701;52.526;13.408;2023-08-31T15:41:28;5.20;;;1.13;;
1412;SDS011;701;52.526;13.408;2023-08-31T15:44:02;5.10;;;1.17;;
1412;SDS011;701;52.526;13.408;2023-08-31T15:46:28;4.93;;;1.00;;
1412;SDS011;701;52.526;13.408;2023-08-31T15:48:54;3.83;;;0.88;;